createdAt,value
2022-10-06T00:01:57.289Z,12.86
2022-10-06T00:04:41.133Z,12.83
2022-10-06T00:07:07.586Z,12.79
2022-10-06T00:09:34.175Z,12.74
2022-10-06T00:12:10.882Z,12.74
2022-10-06T00:14:37.620Z,12.71
2022-10-06T00:17:16.355Z,12.69
2022-10-06T00:19:42.974Z,12.69
2022-10-06T00:22:09.409Z,12.68
2022-10-06T00:24:35.810Z,12.68
2022-10-06T00:27:17.633Z,12.69
2022-10-06T00:29:44.008Z,12.69
2022-10-06T00:32:10.494Z,12.70
2022-10-06T00:34:36.982Z,12.69
2022-10-06T00:37:08.413Z,12.66
2022-10-06T00:39:38.929Z,12.65
2022-10-06T00:42:43.146Z,12.61
2022-10-06T00:45:11.714Z,12.57
2022-10-06T00:47:43.380Z,12.50
2022-10-06T00:50:12.767Z,12.48
2022-10-06T00:52:40.329Z,12.46
2022-10-06T00:55:09.486Z,12.43
2022-10-06T00:57:38.485Z,12.40
2022-10-06T01:00:46.841Z,12.36
2022-10-06T01:03:22.150Z,12.35
2022-10-06T01:05:55.628Z,12.32
2022-10-06T01:09:06.115Z,12.31
2022-10-06T01:11:56.083Z,12.30
2022-10-06T01:14:26.410Z,12.30
2022-10-06T01:17:28.565Z,12.29
2022-10-06T01:20:04.704Z,12.26
2022-10-06T01:22:35.592Z,12.26
2022-10-06T01:25:04.218Z,12.23
2022-10-06T01:27:33.923Z,12.19
2022-10-06T01:30:01.070Z,12.17
2022-10-06T01:32:33.623Z,12.15
2022-10-06T01:35:00.261Z,12.13
2022-10-06T01:38:01.153Z,12.10
2022-10-06T01:40:44.545Z,12.05
2022-10-06T01:43:21.660Z,12.04
2022-10-06T01:46:41.103Z,12.00
2022-10-06T01:49:15.902Z,11.96
2022-10-06T01:51:47.298Z,11.97
2022-10-06T01:54:14.288Z,11.96
2022-10-06T01:56:40.848Z,11.93
2022-10-06T01:59:07.301Z,11.91
2022-10-06T02:01:34.074Z,11.88
2022-10-06T02:04:00.762Z,11.84
2022-10-06T02:06:38.706Z,11.84
2022-10-06T02:09:11.452Z,11.78
2022-10-06T02:11:38.168Z,11.75
2022-10-06T02:14:04.689Z,11.74
2022-10-06T02:16:56.846Z,11.71
2022-10-06T02:19:30.317Z,11.67
2022-10-06T02:22:03.093Z,11.65
2022-10-06T02:24:30.256Z,11.64
2022-10-06T02:27:05.251Z,11.63
2022-10-06T02:29:31.646Z,11.61
2022-10-06T02:32:01.203Z,11.56
2022-10-06T02:34:27.838Z,11.50
2022-10-06T02:37:00.358Z,11.47
2022-10-06T02:39:36.058Z,11.44
2022-10-06T02:42:08.136Z,11.41
2022-10-06T02:44:34.572Z,11.40
2022-10-06T02:47:02.117Z,11.37
2022-10-06T02:49:45.991Z,11.37
2022-10-06T02:52:15.623Z,11.34
2022-10-06T02:54:50.755Z,11.31
2022-10-06T02:57:17.354Z,11.27
2022-10-06T02:59:45.202Z,11.27
2022-10-06T03:02:11.778Z,11.25
2022-10-06T03:04:38.404Z,11.23
2022-10-06T03:07:04.862Z,11.22
2022-10-06T03:09:31.421Z,11.19
2022-10-06T03:11:58.055Z,11.18
2022-10-06T03:14:48.731Z,11.14
2022-10-06T03:17:15.274Z,11.11
2022-10-06T03:19:41.735Z,11.08
2022-10-06T03:22:12.209Z,11.08
2022-10-06T03:24:45.922Z,11.06
2022-10-06T03:27:12.383Z,11.04
2022-10-06T03:29:39.824Z,11.03
2022-10-06T03:32:06.414Z,11.01
2022-10-06T03:34:32.902Z,11.00
2022-10-06T03:36:59.439Z,10.94
2022-10-06T03:39:26.000Z,10.91
2022-10-06T03:41:59.726Z,10.90
2022-10-06T03:44:26.356Z,10.88
2022-10-06T03:47:22.823Z,10.86
2022-10-06T03:49:49.290Z,10.86
2022-10-06T03:52:30.059Z,10.84
2022-10-06T03:54:56.670Z,10.81
2022-10-06T03:57:23.234Z,10.79
2022-10-06T03:59:49.651Z,10.78
2022-10-06T04:02:16.181Z,10.76
2022-10-06T04:04:42.665Z,10.74
2022-10-06T04:07:09.099Z,10.72
2022-10-06T04:09:38.696Z,10.68
2022-10-06T04:12:09.283Z,10.65
2022-10-06T04:14:43.961Z,10.66
2022-10-06T04:17:10.382Z,10.66
2022-10-06T04:19:37.850Z,10.60
2022-10-06T04:22:04.726Z,10.62
2022-10-06T04:24:32.314Z,10.58
2022-10-06T04:27:17.385Z,10.58
2022-10-06T04:29:48.949Z,10.57
2022-10-06T04:32:15.896Z,10.56
2022-10-06T04:34:42.449Z,10.57
2022-10-06T04:37:08.953Z,10.58
2022-10-06T04:39:47.734Z,10.57
2022-10-06T04:42:18.210Z,10.55
2022-10-06T04:44:48.703Z,10.57
2022-10-06T04:47:17.132Z,10.53
2022-10-06T04:49:49.838Z,10.52
2022-10-06T04:52:23.354Z,10.51
2022-10-06T04:55:24.958Z,10.47
2022-10-06T04:57:51.341Z,10.45
2022-10-06T05:00:28.593Z,10.45
2022-10-06T05:02:57.942Z,10.40
2022-10-06T05:05:57.403Z,10.40
2022-10-06T05:08:43.167Z,10.39
2022-10-06T05:11:28.895Z,10.38
2022-10-06T05:13:58.704Z,10.37
2022-10-06T05:16:27.570Z,10.33
2022-10-06T05:18:56.625Z,10.32
2022-10-06T05:21:28.069Z,10.30
2022-10-06T05:23:56.089Z,10.29
2022-10-06T05:26:24.472Z,10.28
2022-10-06T05:29:10.356Z,10.25
2022-10-06T05:31:48.234Z,10.26
2022-10-06T05:34:14.621Z,10.24
2022-10-06T05:36:41.009Z,10.20
2022-10-06T05:39:18.554Z,10.17
2022-10-06T05:41:45.118Z,10.17
2022-10-06T05:47:59.339Z,10.12
2022-10-06T05:50:25.910Z,10.10
2022-10-06T05:52:54.914Z,10.08
2022-10-06T05:55:21.405Z,10.07
2022-10-06T05:57:47.847Z,10.07
2022-10-06T06:00:41.216Z,10.10
2022-10-06T06:03:10.646Z,10.09
2022-10-06T06:05:43.270Z,10.09
2022-10-06T06:08:10.898Z,10.08
2022-10-06T06:10:53.709Z,10.10
2022-10-06T06:13:23.530Z,10.07
2022-10-06T06:16:00.953Z,10.11
2022-10-06T06:18:32.462Z,10.10
2022-10-06T06:21:15.909Z,10.10
2022-10-06T06:23:46.425Z,10.11
2022-10-06T06:26:38.665Z,10.13
2022-10-06T06:29:12.434Z,10.17
2022-10-06T06:31:43.849Z,10.19
2022-10-06T06:34:11.986Z,10.20
2022-10-06T06:36:47.622Z,10.25
2022-10-06T06:39:30.419Z,10.29
2022-10-06T06:41:56.801Z,10.31
2022-10-06T06:44:24.902Z,10.33
2022-10-06T06:46:51.373Z,10.36
2022-10-06T06:49:20.570Z,10.38
2022-10-06T06:51:49.859Z,10.41
2022-10-06T06:54:17.029Z,10.45
2022-10-06T06:56:45.583Z,10.48
2022-10-06T06:59:13.160Z,10.49
2022-10-06T07:01:45.822Z,10.55
2022-10-06T07:04:14.254Z,10.59
2022-10-06T07:06:42.752Z,10.61
2022-10-06T07:09:10.447Z,10.68
2022-10-06T07:11:39.481Z,10.71
2022-10-06T07:14:09.444Z,10.76
2022-10-06T07:24:13.840Z,10.90
2022-10-06T07:26:40.654Z,10.99
2022-10-06T07:29:07.256Z,11.02
2022-10-06T07:31:45.895Z,11.07
2022-10-06T07:34:12.348Z,11.11
2022-10-06T07:36:38.993Z,11.15
2022-10-06T07:39:05.640Z,11.22
2022-10-06T07:41:32.771Z,11.28
2022-10-06T07:43:59.412Z,11.33
2022-10-06T07:46:26.010Z,11.35
2022-10-06T07:48:52.569Z,11.42
2022-10-06T07:51:19.810Z,11.48
2022-10-06T07:53:50.281Z,11.52
2022-10-06T07:56:20.776Z,11.60
2022-10-06T07:58:48.279Z,11.64
2022-10-06T08:01:17.136Z,11.68
2022-10-06T08:03:45.775Z,11.74
2022-10-06T08:06:15.945Z,11.78
2022-10-06T08:08:43.913Z,11.85
2022-10-06T08:11:22.598Z,11.90
2022-10-06T08:13:49.192Z,11.94
2022-10-06T08:16:21.114Z,11.99
2022-10-06T08:18:53.366Z,12.04
2022-10-06T08:21:23.519Z,12.14
2022-10-06T08:23:51.463Z,12.24
2022-10-06T08:26:19.901Z,12.31
2022-10-06T08:28:51.533Z,12.39
2022-10-06T08:31:21.456Z,12.49
2022-10-06T08:33:48.817Z,12.61
2022-10-06T08:36:18.598Z,12.69
2022-10-06T08:38:52.049Z,12.81
2022-10-06T08:41:26.346Z,12.94
2022-10-06T08:43:59.867Z,12.99
2022-10-06T08:46:35.757Z,13.13
2022-10-06T08:49:02.650Z,13.22
2022-10-06T08:51:50.628Z,13.34
2022-10-06T08:54:34.007Z,13.45
2022-10-06T08:57:06.909Z,13.55
2022-10-06T08:59:35.900Z,13.65
2022-10-06T09:02:06.706Z,13.68
2022-10-06T09:04:34.305Z,13.70
2022-10-06T09:07:16.776Z,13.69
2022-10-06T09:10:08.124Z,13.71
2022-10-06T09:12:45.387Z,13.72
2022-10-06T09:15:14.805Z,13.71
2022-10-06T09:17:49.911Z,13.71
2022-10-06T09:20:36.903Z,13.72
2022-10-06T09:23:06.949Z,13.70
2022-10-06T09:25:33.908Z,13.68
2022-10-06T09:28:03.294Z,13.68
2022-10-06T09:30:29.976Z,13.71
2022-10-06T09:33:00.302Z,13.71
2022-10-06T09:35:29.262Z,13.71
2022-10-06T09:38:09.230Z,13.71
2022-10-06T09:40:37.364Z,13.73
2022-10-06T09:43:16.712Z,13.73
2022-10-06T09:45:43.164Z,13.74
2022-10-06T09:48:24.682Z,13.72
2022-10-06T09:51:14.921Z,13.76
2022-10-06T09:54:10.431Z,13.76
2022-10-06T09:56:42.213Z,13.76
2022-10-06T09:59:49.513Z,13.73
2022-10-06T10:02:31.716Z,13.72
2022-10-06T10:04:59.315Z,13.70
2022-10-06T10:08:04.571Z,13.68
2022-10-06T10:10:35.750Z,13.64
2022-10-06T10:13:06.063Z,13.63
2022-10-06T10:15:48.585Z,13.62
2022-10-06T10:18:22.947Z,13.63
2022-10-06T10:21:16.451Z,13.64
2022-10-06T10:24:26.219Z,13.66
2022-10-06T10:27:22.761Z,13.68
2022-10-06T10:30:34.179Z,13.67
2022-10-06T10:33:15.487Z,13.68
2022-10-06T10:35:57.021Z,13.67
2022-10-06T10:38:27.032Z,13.68
2022-10-06T10:41:20.011Z,13.75
2022-10-06T10:43:55.461Z,13.79
2022-10-06T10:50:48.159Z,13.97
2022-10-06T10:53:20.976Z,14.04
2022-10-06T10:55:48.820Z,14.10
2022-10-06T10:58:33.648Z,14.16
2022-10-06T11:01:09.870Z,14.23
2022-10-06T11:03:36.431Z,14.26
2022-10-06T11:06:27.958Z,14.31
2022-10-06T11:09:10.807Z,14.34
2022-10-06T11:12:22.256Z,14.36
2022-10-06T11:14:53.735Z,14.30
2022-10-06T11:17:44.322Z,14.26
2022-10-06T11:20:38.730Z,14.22
2022-10-06T11:23:18.788Z,14.19
2022-10-06T11:25:59.912Z,14.21
2022-10-06T11:29:11.225Z,14.24
2022-10-06T11:35:29.191Z,14.34
2022-10-06T11:38:06.042Z,14.38
2022-10-06T11:41:00.723Z,14.42
2022-10-06T11:43:38.907Z,14.47
2022-10-06T11:46:47.974Z,14.51
2022-10-06T11:49:29.665Z,14.56
2022-10-06T11:52:18.614Z,14.61
2022-10-06T11:54:53.359Z,14.62
2022-10-06T11:57:26.260Z,14.65
2022-10-06T11:59:57.136Z,14.70
2022-10-06T12:02:32.764Z,14.72
2022-10-06T12:05:55.209Z,14.76
2022-10-06T12:08:01.070Z,14.78
2022-10-06T12:10:47.593Z,14.78
2022-10-06T12:14:01.650Z,14.76
2022-10-06T12:19:34.073Z,14.76
2022-10-06T12:22:22.685Z,14.75
2022-10-06T12:25:05.731Z,14.75
2022-10-06T12:27:47.352Z,14.74
2022-10-06T12:30:44.970Z,14.78
2022-10-06T12:33:19.744Z,14.80
2022-10-06T12:36:23.626Z,14.78
2022-10-06T12:39:04.826Z,14.79
2022-10-06T12:42:28.718Z,14.79
2022-10-06T12:44:55.565Z,14.77
2022-10-06T12:47:37.909Z,14.72
2022-10-06T12:50:25.428Z,14.63
2022-10-06T12:53:13.822Z,14.55
2022-10-06T12:55:54.845Z,14.51
2022-10-06T12:58:29.315Z,14.43
2022-10-06T13:01:06.134Z,14.45
2022-10-06T13:03:50.376Z,14.48
2022-10-06T13:06:25.101Z,14.55
2022-10-06T13:09:14.475Z,14.63
2022-10-06T13:11:40.914Z,14.66
2022-10-06T13:14:18.764Z,14.69
2022-10-06T13:16:53.433Z,14.72
2022-10-06T13:19:46.794Z,14.78
2022-10-06T13:22:14.432Z,14.76
2022-10-06T13:24:41.192Z,14.75
2022-10-06T13:27:39.977Z,14.75
2022-10-06T13:30:18.991Z,14.74
2022-10-06T13:32:46.115Z,14.77
2022-10-06T13:35:12.901Z,14.77
2022-10-06T13:37:39.724Z,14.78
2022-10-06T13:40:21.862Z,14.79
2022-10-06T13:42:55.255Z,14.79
2022-10-06T13:45:42.489Z,14.81
2022-10-06T13:48:26.394Z,14.80
2022-10-06T13:50:55.898Z,14.81
2022-10-06T13:53:26.576Z,14.84
2022-10-06T13:55:53.855Z,14.86
2022-10-06T13:58:24.216Z,14.86
2022-10-06T14:01:00.897Z,14.88
2022-10-06T14:03:38.894Z,14.91
2022-10-06T14:06:27.776Z,14.95
2022-10-06T14:08:57.614Z,14.88
2022-10-06T14:11:27.265Z,14.89
2022-10-06T14:14:01.038Z,14.90
2022-10-06T14:16:29.460Z,14.89
2022-10-06T14:19:04.695Z,14.88
2022-10-06T14:21:45.675Z,14.86
2022-10-06T14:24:15.325Z,14.85
2022-10-06T14:26:43.076Z,14.85
2022-10-06T14:29:34.289Z,14.86
2022-10-06T14:32:14.468Z,14.85
2022-10-06T14:34:42.532Z,14.84
2022-10-06T14:37:28.170Z,14.84
2022-10-06T14:39:56.354Z,14.83
2022-10-06T14:42:24.321Z,14.84
2022-10-06T14:44:50.771Z,14.83
2022-10-06T14:47:21.356Z,14.84
2022-10-06T14:49:47.747Z,14.82
2022-10-06T14:52:21.508Z,14.82
2022-10-06T14:54:56.266Z,14.81
2022-10-06T14:57:41.375Z,14.81
2022-10-06T15:00:29.058Z,14.81
2022-10-06T15:02:56.692Z,14.81
2022-10-06T15:05:26.461Z,14.80
2022-10-06T15:08:12.061Z,14.77
2022-10-06T15:10:51.391Z,14.73
2022-10-06T15:13:18.253Z,14.71
2022-10-06T15:15:51.162Z,14.69
2022-10-06T15:18:27.860Z,14.65
2022-10-06T15:24:35.260Z,14.55
2022-10-06T15:27:24.685Z,14.51
2022-10-06T15:29:51.604Z,14.46
2022-10-06T15:32:18.051Z,14.42
2022-10-06T15:34:45.676Z,14.36
2022-10-06T15:37:12.269Z,14.30
2022-10-06T15:39:38.653Z,14.26
2022-10-06T15:42:05.640Z,14.19
2022-10-06T15:44:34.602Z,14.17
2022-10-06T15:47:10.649Z,14.09
2022-10-06T15:49:40.703Z,14.07
2022-10-06T15:52:08.628Z,14.03
2022-10-06T15:54:48.809Z,13.97
2022-10-06T15:57:20.658Z,13.91
2022-10-06T15:59:48.034Z,13.84
2022-10-06T16:02:16.772Z,13.82
2022-10-06T16:04:43.952Z,13.79
2022-10-06T16:07:14.969Z,13.75
2022-10-06T16:09:58.793Z,13.72
2022-10-06T16:12:32.750Z,13.68
2022-10-06T16:15:16.708Z,13.62
2022-10-06T16:17:43.076Z,13.58
2022-10-06T16:20:09.797Z,13.59
2022-10-06T16:22:48.540Z,13.55
2022-10-06T16:25:15.132Z,13.53
2022-10-06T16:27:41.516Z,13.50
2022-10-06T16:30:08.402Z,13.45
2022-10-06T16:32:34.858Z,13.39
2022-10-06T16:35:29.437Z,13.33
2022-10-06T16:37:56.900Z,13.32
2022-10-06T16:40:23.377Z,13.29
2022-10-06T16:42:51.861Z,13.24
2022-10-06T16:45:18.244Z,13.19
2022-10-06T16:47:44.641Z,13.16
2022-10-06T16:50:11.109Z,13.10
2022-10-06T16:52:37.732Z,13.06
2022-10-06T16:55:08.203Z,13.03
2022-10-06T16:57:40.941Z,12.95
2022-10-06T17:00:29.206Z,12.90
2022-10-06T17:03:16.025Z,12.85
2022-10-06T17:06:04.396Z,12.77
2022-10-06T17:08:38.087Z,12.72
2022-10-06T17:11:16.092Z,12.67
2022-10-06T17:14:30.712Z,12.62
2022-10-06T17:17:23.108Z,12.52
2022-10-06T17:19:49.715Z,12.48
2022-10-06T17:22:16.165Z,12.45
2022-10-06T17:24:42.592Z,12.40
2022-10-06T17:27:10.283Z,12.35
2022-10-06T17:29:37.073Z,12.30
2022-10-06T17:32:10.737Z,12.27
2022-10-06T17:34:41.272Z,12.22
2022-10-06T17:37:54.117Z,12.13
2022-10-06T17:40:20.477Z,12.11
2022-10-06T17:43:04.768Z,12.02
2022-10-06T17:45:31.213Z,11.99
2022-10-06T17:47:58.742Z,11.97
2022-10-06T17:50:25.152Z,11.93
2022-10-06T17:52:58.825Z,11.92
2022-10-06T17:55:55.142Z,11.92
2022-10-06T17:58:22.206Z,11.87
2022-10-06T18:01:23.235Z,11.83
2022-10-06T18:04:06.794Z,11.78
2022-10-06T18:06:35.756Z,11.75
2022-10-06T18:09:02.977Z,11.72
2022-10-06T18:11:38.462Z,11.74
2022-10-06T18:14:09.907Z,11.70
2022-10-06T18:17:01.760Z,11.69
2022-10-06T18:20:01.312Z,11.67
2022-10-06T18:22:28.302Z,11.66
2022-10-06T18:24:59.124Z,11.63
2022-10-06T18:27:27.291Z,11.59
2022-10-06T18:30:23.724Z,11.58
2022-10-06T18:38:45.801Z,11.44
2022-10-06T18:41:17.906Z,11.41
2022-10-06T18:43:44.938Z,11.40
2022-10-06T18:46:41.521Z,11.37
2022-10-06T18:49:12.338Z,11.29
2022-10-06T18:51:58.058Z,11.25
2022-10-06T18:54:48.904Z,11.26
2022-10-06T18:57:25.109Z,11.26
2022-10-06T18:59:54.166Z,11.25
2022-10-06T19:02:26.484Z,11.24
2022-10-06T19:04:55.357Z,11.23
2022-10-06T19:07:22.408Z,11.19
2022-10-06T19:09:50.084Z,11.15
2022-10-06T19:12:19.578Z,11.14
2022-10-06T19:15:10.153Z,11.13
2022-10-06T19:18:08.040Z,11.11
2022-10-06T19:20:34.461Z,11.10
2022-10-06T19:23:36.118Z,11.07
2022-10-06T19:26:06.161Z,11.05
2022-10-06T19:28:33.756Z,11.04
2022-10-06T19:31:02.898Z,11.01
2022-10-06T19:33:30.437Z,10.99
2022-10-06T19:35:57.999Z,10.97
2022-10-06T19:38:25.233Z,10.96
2022-10-06T19:41:15.965Z,10.92
2022-10-06T19:44:08.163Z,10.89
2022-10-06T19:46:43.870Z,10.86
2022-10-06T19:49:15.829Z,10.84
2022-10-06T19:51:42.233Z,10.82
2022-10-06T19:54:14.738Z,10.78
2022-10-06T19:56:42.063Z,10.74
2022-10-06T19:59:14.164Z,10.70
2022-10-06T20:01:42.240Z,10.64
2022-10-06T20:04:09.412Z,10.63
2022-10-06T20:06:46.961Z,10.62
2022-10-06T20:09:16.184Z,10.59
2022-10-06T20:11:44.863Z,10.58
2022-10-06T20:14:34.316Z,10.53
2022-10-06T20:17:04.970Z,10.49
2022-10-06T20:19:31.745Z,10.48
2022-10-06T20:22:01.250Z,10.46
2022-10-06T20:24:27.862Z,10.48
2022-10-06T20:26:54.397Z,10.47
2022-10-06T20:29:26.305Z,10.47
2022-10-06T20:31:55.287Z,10.45
2022-10-06T20:34:25.026Z,10.43
2022-10-06T20:36:55.876Z,10.43
2022-10-06T20:39:50.376Z,10.40
2022-10-06T20:42:18.136Z,10.38
2022-10-06T20:44:44.538Z,10.38
2022-10-06T20:47:16.431Z,10.36
2022-10-06T20:49:42.970Z,10.32
2022-10-06T20:52:10.066Z,10.30
2022-10-06T20:54:55.085Z,10.28
2022-10-06T20:57:36.923Z,10.26
2022-10-06T21:00:07.286Z,10.21
2022-10-06T21:02:34.106Z,10.14
2022-10-06T21:05:02.165Z,10.16
2022-10-06T21:07:28.779Z,10.12
2022-10-06T21:09:55.184Z,10.11
2022-10-06T21:12:21.607Z,10.10
2022-10-06T21:14:48.138Z,10.09
2022-10-06T21:17:16.600Z,10.06
2022-10-06T21:19:43.015Z,10.02
2022-10-06T21:22:09.647Z,10.01
2022-10-06T21:24:36.136Z,10.00
2022-10-06T21:27:03.173Z,9.97
2022-10-06T21:29:29.658Z,9.96
2022-10-06T21:31:56.187Z,9.96
2022-10-06T21:34:22.731Z,9.93
2022-10-06T21:36:51.452Z,9.90
2022-10-06T21:39:18.889Z,9.93
2022-10-06T21:41:45.326Z,9.90
2022-10-06T21:44:18.694Z,9.86
2022-10-06T21:46:51.099Z,9.88
2022-10-06T21:49:22.772Z,9.81
2022-10-06T21:51:53.450Z,9.84
2022-10-06T21:54:23.208Z,9.87
2022-10-06T21:56:50.098Z,9.90
2022-10-06T21:59:16.602Z,9.90
2022-10-06T22:01:45.139Z,9.91
2022-10-06T22:04:14.207Z,9.94
2022-10-06T22:06:50.863Z,9.95
2022-10-06T22:09:19.695Z,9.96
2022-10-06T22:11:46.377Z,9.95
2022-10-06T22:14:15.147Z,9.95
2022-10-06T22:16:46.106Z,9.95
2022-10-06T22:19:21.262Z,9.93
2022-10-06T22:21:48.633Z,9.93
2022-10-06T22:24:20.354Z,9.95
2022-10-06T22:26:47.663Z,9.96
2022-10-06T22:29:15.668Z,9.93
2022-10-06T22:31:52.844Z,9.89
2022-10-06T22:34:29.810Z,9.85
2022-10-06T22:36:56.198Z,9.84
2022-10-06T22:39:22.633Z,9.85
2022-10-06T22:41:55.183Z,9.81
2022-10-06T22:44:23.865Z,9.79
2022-10-06T22:46:55.548Z,9.76
2022-10-06T22:49:27.082Z,9.72
2022-10-06T22:51:53.529Z,9.70
2022-10-06T22:54:29.937Z,9.71
2022-10-06T22:56:56.909Z,9.70
2022-10-06T22:59:23.501Z,9.69
2022-10-06T23:01:49.954Z,9.68
2022-10-06T23:04:16.430Z,9.63
2022-10-06T23:06:42.882Z,9.60
2022-10-06T23:09:09.425Z,9.61
2022-10-06T23:11:35.920Z,9.62
2022-10-06T23:14:02.307Z,9.61
2022-10-06T23:16:30.911Z,9.64
2022-10-06T23:18:57.551Z,9.64
2022-10-06T23:21:30.357Z,9.64
2022-10-06T23:23:59.708Z,9.63
2022-10-06T23:26:27.048Z,9.60
2022-10-06T23:28:57.179Z,9.55
2022-10-06T23:31:24.737Z,9.54
2022-10-06T23:33:51.793Z,9.52
2022-10-06T23:36:20.362Z,9.52
2022-10-06T23:39:00.706Z,9.51
2022-10-06T23:41:29.263Z,9.51
2022-10-06T23:43:55.673Z,9.45
2022-10-06T23:46:22.374Z,9.44
2022-10-06T23:48:48.954Z,9.45
2022-10-06T23:51:16.118Z,9.45
2022-10-06T23:53:43.369Z,9.45
2022-10-06T23:56:10.349Z,9.47
2022-10-06T23:58:37.218Z,9.47
